Arklow Raider — EIXS — position and weather

sailwx.info

Track history (hours):
 
Tides and Currents Weather Stations Pressure Air Temp Water Temp Dewpoint Dewpoint Depression Visibility Wind Speed Wind Dir Waves Ship Positions

Arklow Raider

Last reported at 2017-Jan-16 08:30 UTC. Time now 2017-Jan-19 21:28 UTC.
Position N 51°15' W 010°26'.

Length 90 m; draft 4 m.

Type: Ship. MMSI: 250001268.

Date/timePositionNaut miles runAvg speedWind from/ knotsBaromVisibWave heightAir tempDewpointWater temp
2017-Jan-16 08:30N 51°15' W 010°26'  
2017-Jan-13 07:28N 51°33' W 010°20'6 6.1
2017-Jan-13 06:33N 51°31' W 010°12'7 6.9
2017-Jan-13 05:33N 51°28' W 010°02'8 8.0
2017-Jan-13 04:33N 51°24' W 009°50'7 6.5
2017-Jan-13 03:33N 51°22' W 009°41'7 7.1
2017-Jan-13 02:33N 51°22' W 009°29'9 9.4
2017-Jan-13 01:33N 51°25' W 009°15'1111.0
2017-Jan-13 00:33N 51°29' W 008°59'1111.5
2017-Jan-12 23:33N 51°33' W 008°41'1111.4
2017-Jan-12 22:33N 51°38' W 008°25'1211.5
2017-Jan-12 21:33N 51°48' W 008°16'8 7.8
2017-Jan-12 20:33N 51°54' W 008°24'2 0.1
2017-Jan-11 05:11N 51°54' W 008°28'2 3.9
2017-Jan-11 04:33N 51°54' W 008°24'7 6.6
2017-Jan-11 03:33N 51°49' W 008°16'9 8.8
2017-Jan-11 02:33N 51°45' W 008°04'1010.4
2017-Jan-11 01:33N 51°44' W 007°47'1110.8
2017-Jan-11 00:33N 51°42' W 007°30'17610.4
2017-Jan-10 07:34N 51°30' W 002°48'3 2.8
2017-Jan-10 06:32N 51°30' W 002°43'0 0.0
2017-Jan-10 05:32N 51°30' W 002°43'0 0.0
2017-Jan-10 04:32N 51°30' W 002°43'0 0.0
2017-Jan-10 03:32N 51°30' W 002°43'0 0.0
2017-Jan-10 02:32N 51°30' W 002°43'0 0.0
2017-Jan-10 01:32N 51°30' W 002°43'0 0.0
2017-Jan-10 00:32N 51°30' W 002°43'0 0.0
2017-Jan-09 23:32N 51°30' W 002°43'0 0.0
2017-Jan-09 22:32N 51°30' W 002°43'0 0.0
2017-Jan-09 21:32N 51°30' W 002°43'0 0.0
2017-Jan-09 20:32N 51°30' W 002°43'0 0.0
2017-Jan-09 19:32N 51°30' W 002°43'0 0.0
2017-Jan-09 18:32N 51°30' W 002°43'0 0.0
2017-Jan-09 17:32N 51°30' W 002°43'0 0.0
2017-Jan-09 16:32N 51°30' W 002°43'0 0.0
2017-Jan-09 15:32N 51°30' W 002°43'0 0.0
2017-Jan-09 14:32N 51°30' W 002°43'0 0.0
2017-Jan-09 13:32N 51°30' W 002°43'0 0.0
2017-Jan-09 12:32N 51°30' W 002°43'0 0.0
2017-Jan-09 11:32N 51°30' W 002°43'0 0.0
2017-Jan-09 10:32N 51°30' W 002°43'0 0.0
2017-Jan-09 09:32N 51°30' W 002°43'0 0.0
2017-Jan-09 08:32N 51°30' W 002°43'0 0.0
2017-Jan-09 07:32N 51°30' W 002°43'0 0.0
2017-Jan-09 06:32N 51°30' W 002°43'0 0.0
2017-Jan-09 05:32N 51°30' W 002°43'0 0.0
2017-Jan-09 04:32N 51°30' W 002°43'0 0.0
2017-Jan-09 03:32N 51°30' W 002°43'0 0.0
2017-Jan-09 02:32N 51°30' W 002°43'0 0.0
2017-Jan-09 01:32N 51°30' W 002°43'0 0.0
2017-Jan-09 00:32N 51°30' W 002°43'0 0.0
2017-Jan-08 23:32N 51°30' W 002°43'0 0.0
2017-Jan-08 22:32N 51°30' W 002°43'0 0.0
2017-Jan-08 21:32N 51°30' W 002°43'0 0.0
2017-Jan-08 20:32N 51°30' W 002°43'0 0.0
2017-Jan-08 19:32N 51°30' W 002°43'0 0.0
2017-Jan-08 18:32N 51°30' W 002°43'0 0.0
2017-Jan-08 17:32N 51°30' W 002°43'0 0.0
2017-Jan-08 16:32N 51°30' W 002°43'0 0.0
2017-Jan-08 15:32N 51°30' W 002°43'0 0.0
2017-Jan-08 14:32N 51°30' W 002°43'0 0.0
2017-Jan-08 13:32N 51°30' W 002°43'0 0.0
2017-Jan-08 12:32N 51°30' W 002°43'0 0.0
2017-Jan-08 11:32N 51°30' W 002°43'0 0.0
2017-Jan-08 10:32N 51°30' W 002°43'0 0.0
2017-Jan-08 09:32N 51°30' W 002°43'0 0.0
2017-Jan-08 08:32N 51°30' W 002°43'0 0.0
2017-Jan-08 07:32N 51°30' W 002°43'0 0.0
2017-Jan-08 06:32N 51°30' W 002°43'0 0.0
2017-Jan-08 05:32N 51°30' W 002°43'0 0.0
2017-Jan-08 04:32N 51°30' W 002°43'0 0.0
2017-Jan-08 03:32N 51°30' W 002°43'0 0.0
2017-Jan-08 02:32N 51°30' W 002°43'0 0.0
2017-Jan-08 01:32N 51°30' W 002°43'0 0.4
2017-Jan-08 00:33N 51°30' W 002°44'1 0.7
2017-Jan-07 23:33N 51°30' W 002°43'0 0.1
2017-Jan-07 22:33N 51°30' W 002°42'0 0.5
2017-Jan-07 21:31N 51°31' W 002°42'0 0.0
2017-Jan-07 20:31N 51°31' W 002°42'0 0.0
2017-Jan-07 19:31N 51°31' W 002°42'0 0.0
2017-Jan-07 18:31N 51°31' W 002°42'0 0.0
2017-Jan-07 17:31N 51°31' W 002°42'0 0.0
2017-Jan-07 16:31N 51°31' W 002°42'0 0.0
2017-Jan-07 15:31N 51°31' W 002°42'0 0.0
2017-Jan-07 14:31N 51°31' W 002°42'0 0.0
2017-Jan-07 13:31N 51°31' W 002°42'0 0.0
2017-Jan-07 12:31N 51°31' W 002°42'0 0.0
2017-Jan-07 11:31N 51°31' W 002°42'0 0.0
2017-Jan-07 10:31N 51°31' W 002°42'0 0.0
2017-Jan-07 09:31N 51°31' W 002°42'0 0.0
2017-Jan-07 08:31N 51°31' W 002°42'0 0.0
2017-Jan-07 07:31N 51°31' W 002°42'0 0.0
2017-Jan-07 06:31N 51°31' W 002°42'0 0.0
2017-Jan-07 05:31N 51°31' W 002°42'0 0.0
2017-Jan-07 04:31N 51°31' W 002°42'0 0.0
2017-Jan-07 03:31N 51°31' W 002°42'0 0.0
2017-Jan-07 02:31N 51°31' W 002°42'0 0.0
2017-Jan-07 01:31N 51°31' W 002°42'1 0.6
2017-Jan-07 00:33N 51°30' W 002°43'9 8.7
2017-Jan-06 23:33N 51°27' W 002°56'2511.5
2017-Jan-06 21:24N 51°21' W 003°34'  
Track history (hours):
 
Tides and Currents Weather Stations Pressure Air Temp Water Temp Dewpoint Dewpoint Depression Visibility Wind Speed Wind Dir Waves Ship Positions

Arklow Raider

Last reported at 2017-Jan-16 08:30 UTC. Time now 2017-Jan-19 21:28 UTC.
Position N 51°15' W 010°26'.

Length 90 m; draft 4 m.

Type: Ship. MMSI: 250001268.

Date/timePositionNaut miles runAvg speedWind from/ knotsBaromVisibWave heightAir tempDewpointWater temp
2017-Jan-16 08:30N 51°15' W 010°26'  
2017-Jan-13 07:28N 51°33' W 010°20'6 6.1
2017-Jan-13 06:33N 51°31' W 010°12'7 6.9
2017-Jan-13 05:33N 51°28' W 010°02'8 8.0
2017-Jan-13 04:33N 51°24' W 009°50'7 6.5
2017-Jan-13 03:33N 51°22' W 009°41'7 7.1
2017-Jan-13 02:33N 51°22' W 009°29'9 9.4
2017-Jan-13 01:33N 51°25' W 009°15'1111.0
2017-Jan-13 00:33N 51°29' W 008°59'1111.5
2017-Jan-12 23:33N 51°33' W 008°41'1111.4
2017-Jan-12 22:33N 51°38' W 008°25'1211.5
2017-Jan-12 21:33N 51°48' W 008°16'8 7.8
2017-Jan-12 20:33N 51°54' W 008°24'2 0.1
2017-Jan-11 05:11N 51°54' W 008°28'2 3.9
2017-Jan-11 04:33N 51°54' W 008°24'7 6.6
2017-Jan-11 03:33N 51°49' W 008°16'9 8.8
2017-Jan-11 02:33N 51°45' W 008°04'1010.4
2017-Jan-11 01:33N 51°44' W 007°47'1110.8
2017-Jan-11 00:33N 51°42' W 007°30'17610.4
2017-Jan-10 07:34N 51°30' W 002°48'3 2.8
2017-Jan-10 06:32N 51°30' W 002°43'0 0.0
2017-Jan-10 05:32N 51°30' W 002°43'0 0.0
2017-Jan-10 04:32N 51°30' W 002°43'0 0.0
2017-Jan-10 03:32N 51°30' W 002°43'0 0.0
2017-Jan-10 02:32N 51°30' W 002°43'0 0.0
2017-Jan-10 01:32N 51°30' W 002°43'0 0.0
2017-Jan-10 00:32N 51°30' W 002°43'0 0.0
2017-Jan-09 23:32N 51°30' W 002°43'0 0.0
2017-Jan-09 22:32N 51°30' W 002°43'0 0.0
2017-Jan-09 21:32N 51°30' W 002°43'0 0.0
2017-Jan-09 20:32N 51°30' W 002°43'0 0.0
2017-Jan-09 19:32N 51°30' W 002°43'0 0.0
2017-Jan-09 18:32N 51°30' W 002°43'0 0.0
2017-Jan-09 17:32N 51°30' W 002°43'0 0.0
2017-Jan-09 16:32N 51°30' W 002°43'0 0.0
2017-Jan-09 15:32N 51°30' W 002°43'0 0.0
2017-Jan-09 14:32N 51°30' W 002°43'0 0.0
2017-Jan-09 13:32N 51°30' W 002°43'0 0.0
2017-Jan-09 12:32N 51°30' W 002°43'0 0.0
2017-Jan-09 11:32N 51°30' W 002°43'0 0.0
2017-Jan-09 10:32N 51°30' W 002°43'0 0.0
2017-Jan-09 09:32N 51°30' W 002°43'0 0.0
2017-Jan-09 08:32N 51°30' W 002°43'0 0.0
2017-Jan-09 07:32N 51°30' W 002°43'0 0.0
2017-Jan-09 06:32N 51°30' W 002°43'0 0.0
2017-Jan-09 05:32N 51°30' W 002°43'0 0.0
2017-Jan-09 04:32N 51°30' W 002°43'0 0.0
2017-Jan-09 03:32N 51°30' W 002°43'0 0.0
2017-Jan-09 02:32N 51°30' W 002°43'0 0.0
2017-Jan-09 01:32N 51°30' W 002°43'0 0.0
2017-Jan-09 00:32N 51°30' W 002°43'0 0.0
2017-Jan-08 23:32N 51°30' W 002°43'0 0.0
2017-Jan-08 22:32N 51°30' W 002°43'0 0.0
2017-Jan-08 21:32N 51°30' W 002°43'0 0.0
2017-Jan-08 20:32N 51°30' W 002°43'0 0.0
2017-Jan-08 19:32N 51°30' W 002°43'0 0.0
2017-Jan-08 18:32N 51°30' W 002°43'0 0.0
2017-Jan-08 17:32N 51°30' W 002°43'0 0.0
2017-Jan-08 16:32N 51°30' W 002°43'0 0.0
2017-Jan-08 15:32N 51°30' W 002°43'0 0.0
2017-Jan-08 14:32N 51°30' W 002°43'0 0.0
2017-Jan-08 13:32N 51°30' W 002°43'0 0.0
2017-Jan-08 12:32N 51°30' W 002°43'0 0.0
2017-Jan-08 11:32N 51°30' W 002°43'0 0.0
2017-Jan-08 10:32N 51°30' W 002°43'0 0.0
2017-Jan-08 09:32N 51°30' W 002°43'0 0.0
2017-Jan-08 08:32N 51°30' W 002°43'0 0.0
2017-Jan-08 07:32N 51°30' W 002°43'0 0.0
2017-Jan-08 06:32N 51°30' W 002°43'0 0.0
2017-Jan-08 05:32N 51°30' W 002°43'0 0.0
2017-Jan-08 04:32N 51°30' W 002°43'0 0.0
2017-Jan-08 03:32N 51°30' W 002°43'0 0.0
2017-Jan-08 02:32N 51°30' W 002°43'0 0.0
2017-Jan-08 01:32N 51°30' W 002°43'0 0.4
2017-Jan-08 00:33N 51°30' W 002°44'1 0.7
2017-Jan-07 23:33N 51°30' W 002°43'0 0.1
2017-Jan-07 22:33N 51°30' W 002°42'0 0.5
2017-Jan-07 21:31N 51°31' W 002°42'0 0.0
2017-Jan-07 20:31N 51°31' W 002°42'0 0.0
2017-Jan-07 19:31N 51°31' W 002°42'0 0.0
2017-Jan-07 18:31N 51°31' W 002°42'0 0.0
2017-Jan-07 17:31N 51°31' W 002°42'0 0.0
2017-Jan-07 16:31N 51°31' W 002°42'0 0.0
2017-Jan-07 15:31N 51°31' W 002°42'0 0.0
2017-Jan-07 14:31N 51°31' W 002°42'0 0.0
2017-Jan-07 13:31N 51°31' W 002°42'0 0.0
2017-Jan-07 12:31N 51°31' W 002°42'0 0.0
2017-Jan-07 11:31N 51°31' W 002°42'0 0.0
2017-Jan-07 10:31N 51°31' W 002°42'0 0.0
2017-Jan-07 09:31N 51°31' W 002°42'0 0.0
2017-Jan-07 08:31N 51°31' W 002°42'0 0.0
2017-Jan-07 07:31N 51°31' W 002°42'0 0.0
2017-Jan-07 06:31N 51°31' W 002°42'0 0.0
2017-Jan-07 05:31N 51°31' W 002°42'0 0.0
2017-Jan-07 04:31N 51°31' W 002°42'0 0.0
2017-Jan-07 03:31N 51°31' W 002°42'0 0.0
2017-Jan-07 02:31N 51°31' W 002°42'0 0.0
2017-Jan-07 01:31N 51°31' W 002°42'1 0.6
2017-Jan-07 00:33N 51°30' W 002°43'9 8.7
2017-Jan-06 23:33N 51°27' W 002°56'2511.5
2017-Jan-06 21:24N 51°21' W 003°34'  

Dump ship's entire track history